الصفحة الرئيسية
METAR-TAF:

METAR-TAF

مطار :

Page, أريزونا, الولايات المتحدة

دائرة عرض: 36-55-14N, خط طول: 111-26-53W, ارتفاع: 1314 متر

مراقبة الطقس الحالي

تاريخ ووقت الإصدار 1ساعة و 1 دقيقة قبل الساعة 20:53UTC
ريح 5 عقدةمن اتجاهات متغيرة
درجة الحرارة 18°درجة مئوية
الرطوبة 22%
ضغط 1019 hPa
الرؤية: 16.1 كم
سماء صافية

METAR: KPGA 182053Z AUTO VRB05KT 10SM CLR 18/M04 A3009 RMK AO2 SLP159 T01781044 58025 TSNO

زمن: 14:54 (21:54 UTC)

توقعات

تاريخ ووقت الإصدار 4ساعات و 19 دقيقة قبل الساعة 17:35UTC
التوقعات صالحة من18 الساعة 18 UTC إلى 19 الساعة 18 UTC
ريح 5 عقدةمن اتجاهات متغيرة
الرؤية: 10 كم
سماء صافية

TAF: KPGA 181735Z 1818/1918 VRB05KT P6SM SKC

أرصاد الطقس والتوقعات من أكثر من 4000 مطار (تقارير الطقس للمطار METAR والتنبؤ بالطقس بالمطارTAF).

المحطات المتاحة هي النقط الصفراء والحمراء على الخريطة.

حرك المؤشر فوق النقطة لمعرفة اسم المحطة.

ثم انقر لمعرفة أرصاد وتوقعات الطقس.

لتغيير الخارطة: اضغط على الأزرار الخضراء مع رمز الصليب الأسود للتكبير. على الزر الأخضر مع شرطة للتصغير، أو على الأسهم الخضراء للخرائط المجاورة.


METAR-TAF: